Time;durP1;ratioP1;P1;durP2;ratioP2;P2;SDS_P1;SDS_P2;PMS_P1;PMS_P2;Temp;Humidity;BMP_temperature;BMP_pressure;BME280_temperature;BME280_humidity;BME280_pressure;Samples;Min_cycle;Max_cycle;Signal;HPM_P1;HPM_P2
2022/07/06 00:00:02;;;;;;;26.63;6.13;;;;;;;;;;4931668;29;20039;-56
2022/07/06 00:02:29;;;;;;;28.23;5.65;;;;;;;;;;4941215;29;20031;-55
2022/07/06 00:04:57;;;;;;;19.40;5.38;;;;;;;;;;4944376;29;20031;-56
2022/07/06 00:07:24;;;;;;;28.65;5.28;;;;;;;;;;4935803;29;20043;-53
2022/07/06 00:09:51;;;;;;;24.88;5.13;;;;;;;;;;4933744;29;20715;-54
2022/07/06 00:12:18;;;;;;;20.58;5.30;;;;;;;;;;4933851;29;20038;-59
2022/07/06 00:14:45;;;;;;;20.77;4.55;;;;;;;;;;4933758;29;20028;-56
2022/07/06 00:17:12;;;;;;;24.83;5.03;;;;;;;;;;4934691;29;20486;-53
2022/07/06 00:19:39;;;;;;;29.80;5.07;;;;;;;;;;4913281;29;20039;-53
2022/07/06 00:22:07;;;;;;;24.65;4.85;;;;;;;;;;4930981;29;20032;-55
2022/07/06 00:24:33;;;;;;;33.78;5.50;;;;;;;;;;4933646;29;20032;-52
2022/07/06 00:27:00;;;;;;;36.13;5.57;;;;;;;;;;4933464;29;20035;-53
2022/07/06 00:29:28;;;;;;;34.45;5.47;;;;;;;;;;4932541;29;20583;-55
2022/07/06 00:31:55;;;;;;;26.58;5.68;;;;;;;;;;4934160;29;20032;-55
2022/07/06 00:34:23;;;;;;;30.65;5.32;;;;;;;;;;4933169;29;20125;-55
2022/07/06 00:36:50;;;;;;;21.77;5.40;;;;;;;;;;4931822;29;20066;-53
2022/07/06 00:39:19;;;;;;;22.20;5.35;;;;;;;;;;4931915;29;20036;-56
2022/07/06 00:41:46;;;;;;;20.92;4.75;;;;;;;;;;4932012;29;20047;-59
2022/07/06 00:44:12;;;;;;;21.50;5.00;;;;;;;;;;4930507;29;20683;-56
2022/07/06 00:46:39;;;;;;;26.10;5.80;;;;;;;;;;4932178;29;20554;-56
2022/07/06 00:50:13;;;;;;;22.10;6.20;;;;;;;;;;4933331;29;20086;-55
2022/07/06 00:51:53;;;;;;;19.95;5.82;;;;;;;;;;4932522;29;20072;-53
2022/07/06 00:54:20;;;;;;;20.48;6.22;;;;;;;;;;4934574;29;20051;-54
2022/07/06 00:56:47;;;;;;;23.10;6.13;;;;;;;;;;4933580;29;20024;-56
2022/07/06 00:59:14;;;;;;;25.38;6.65;;;;;;;;;;4933836;29;20088;-54
2022/07/06 01:01:41;;;;;;;32.80;7.63;;;;;;;;;;4933240;29;20418;-55
2022/07/06 01:04:08;;;;;;;32.40;6.88;;;;;;;;;;4933628;29;20027;-55
2022/07/06 01:06:35;;;;;;;32.50;8.45;;;;;;;;;;4931382;29;20043;-55
2022/07/06 01:09:02;;;;;;;31.25;8.10;;;;;;;;;;4933386;29;20024;-52
2022/07/06 01:11:29;;;;;;;28.08;7.85;;;;;;;;;;4932517;29;20035;-53
2022/07/06 01:13:57;;;;;;;28.52;6.72;;;;;;;;;;4925966;29;20035;-53
2022/07/06 01:16:24;;;;;;;25.30;7.03;;;;;;;;;;4933452;29;20406;-55
2022/07/06 01:18:51;;;;;;;25.98;7.63;;;;;;;;;;4932184;29;20035;-52
2022/07/06 01:21:18;;;;;;;24.02;7.25;;;;;;;;;;4932011;29;20496;-55
2022/07/06 01:23:46;;;;;;;32.33;7.45;;;;;;;;;;4932416;29;20043;-55
2022/07/06 01:26:14;;;;;;;22.67;7.05;;;;;;;;;;4931463;29;20083;-56
2022/07/06 01:28:41;;;;;;;26.52;6.30;;;;;;;;;;4913565;29;20789;-53
2022/07/06 01:31:28;;;;;;;28.77;7.53;;;;;;;;;;4931283;29;20047;-53
2022/07/06 01:33:56;;;;;;;26.95;6.47;;;;;;;;;;4932564;29;20406;-54
2022/07/06 01:36:23;;;;;;;25.33;6.13;;;;;;;;;;4931884;29;20024;-51
2022/07/06 01:38:56;;;;;;;17.15;6.22;;;;;;;;;;4929393;29;20043;-55
2022/07/06 01:41:23;;;;;;;20.08;6.45;;;;;;;;;;4930797;29;20639;-51
2022/07/06 01:43:50;;;;;;;22.95;6.35;;;;;;;;;;4929849;29;20024;-50
2022/07/06 01:46:19;;;;;;;27.10;6.97;;;;;;;;;;4930003;29;20587;-56
2022/07/06 01:48:46;;;;;;;20.30;5.80;;;;;;;;;;4931918;29;20039;-53
2022/07/06 01:51:13;;;;;;;20.67;6.30;;;;;;;;;;4929848;29;20035;-52
2022/07/06 01:53:40;;;;;;;25.10;6.07;;;;;;;;;;4930455;29;20036;-58
2022/07/06 01:56:07;;;;;;;30.63;5.97;;;;;;;;;;4930752;29;20035;-55
2022/07/06 01:58:34;;;;;;;20.65;5.75;;;;;;;;;;4929945;29;20046;-52
2022/07/06 02:01:07;;;;;;;20.42;6.20;;;;;;;;;;4931062;29;20646;-55
2022/07/06 02:03:34;;;;;;;24.20;5.68;;;;;;;;;;4929909;29;20044;-57
2022/07/06 02:06:01;;;;;;;24.45;5.22;;;;;;;;;;4930955;29;20553;-59
2022/07/06 02:08:28;;;;;;;18.88;5.93;;;;;;;;;;4933277;29;20031;-58
2022/07/06 02:10:55;;;;;;;18.45;4.78;;;;;;;;;;4932996;29;20128;-56
2022/07/06 02:13:22;;;;;;;17.40;4.90;;;;;;;;;;4931689;29;20528;-57
2022/07/06 02:15:49;;;;;;;17.80;5.05;;;;;;;;;;4933834;29;20032;-58
2022/07/06 02:18:16;;;;;;;14.05;4.75;;;;;;;;;;4935816;29;20067;-57
2022/07/06 02:20:43;;;;;;;19.42;5.47;;;;;;;;;;4935731;29;20036;-59
2022/07/06 02:23:10;;;;;;;17.52;5.82;;;;;;;;;;4934472;29;20482;-57
2022/07/06 02:25:37;;;;;;;14.68;4.72;;;;;;;;;;4932817;29;20032;-57
2022/07/06 02:28:04;;;;;;;21.60;5.45;;;;;;;;;;4933870;29;20032;-55
2022/07/06 02:30:31;;;;;;;16.88;5.00;;;;;;;;;;4933745;29;20075;-56
2022/07/06 02:32:58;;;;;;;14.25;4.53;;;;;;;;;;4937943;29;20028;-56
2022/07/06 02:35:25;;;;;;;15.85;3.95;;;;;;;;;;4944938;29;20028;-58
2022/07/06 02:37:52;;;;;;;13.63;4.70;;;;;;;;;;4945743;29;20027;-57
2022/07/06 02:40:19;;;;;;;19.02;4.95;;;;;;;;;;4937998;29;20398;-58
2022/07/06 02:42:46;;;;;;;14.20;4.55;;;;;;;;;;4944171;29;20039;-59
2022/07/06 02:45:14;;;;;;;16.02;4.78;;;;;;;;;;4945506;29;20028;-58
2022/07/06 02:47:41;;;;;;;15.50;4.47;;;;;;;;;;4947381;29;20031;-57
2022/07/06 02:50:08;;;;;;;13.63;4.03;;;;;;;;;;4945977;29;20107;-54
2022/07/06 02:52:35;;;;;;;9.20;4.32;;;;;;;;;;4946753;29;20019;-56
2022/07/06 02:55:02;;;;;;;14.70;4.50;;;;;;;;;;4945716;29;20090;-59
2022/07/06 02:57:29;;;;;;;9.50;3.95;;;;;;;;;;4944162;29;20026;-56
2022/07/06 02:59:56;;;;;;;11.30;4.30;;;;;;;;;;4938552;29;20031;-57
2022/07/06 03:02:23;;;;;;;9.80;3.88;;;;;;;;;;4940942;29;20095;-56
2022/07/06 03:04:51;;;;;;;9.82;3.80;;;;;;;;;;4941396;29;20035;-56
2022/07/06 03:07:18;;;;;;;12.57;4.18;;;;;;;;;;4941466;29;20110;-56
2022/07/06 03:09:45;;;;;;;11.63;4.07;;;;;;;;;;4950132;29;20397;-56
2022/07/06 03:12:12;;;;;;;11.07;3.65;;;;;;;;;;4948692;29;20042;-54
2022/07/06 03:14:39;;;;;;;10.32;4.18;;;;;;;;;;4943782;29;20389;-56
2022/07/06 03:17:06;;;;;;;12.10;3.95;;;;;;;;;;4945947;29;20045;-59
2022/07/06 03:19:32;;;;;;;11.48;3.88;;;;;;;;;;4944615;29;20090;-57
2022/07/06 03:21:59;;;;;;;10.07;3.85;;;;;;;;;;4945700;29;20034;-55
2022/07/06 03:24:27;;;;;;;8.95;3.80;;;;;;;;;;4945950;29;20063;-57
2022/07/06 03:26:54;;;;;;;10.00;3.85;;;;;;;;;;4945094;29;20389;-55
2022/07/06 03:29:21;;;;;;;11.00;4.03;;;;;;;;;;4944767;29;20029;-53
2022/07/06 03:31:48;;;;;;;10.20;3.75;;;;;;;;;;4952143;29;20512;-56
2022/07/06 03:34:15;;;;;;;10.77;3.90;;;;;;;;;;4955614;29;20027;-58
2022/07/06 03:36:42;;;;;;;8.63;3.60;;;;;;;;;;4955533;29;20074;-58
2022/07/06 03:39:09;;;;;;;10.85;3.83;;;;;;;;;;4955233;29;20564;-56
2022/07/06 03:41:36;;;;;;;6.28;2.85;;;;;;;;;;4955418;29;20138;-57
2022/07/06 03:44:03;;;;;;;10.20;3.72;;;;;;;;;;4955693;29;20031;-56
2022/07/06 03:46:30;;;;;;;9.75;3.70;;;;;;;;;;4954915;29;20078;-57
2022/07/06 03:48:57;;;;;;;9.15;3.40;;;;;;;;;;4955348;29;20110;-56
2022/07/06 03:51:24;;;;;;;7.88;3.10;;;;;;;;;;4954992;29;20076;-57
2022/07/06 03:53:51;;;;;;;9.20;3.58;;;;;;;;;;4955462;29;20020;-57
2022/07/06 03:56:32;;;;;;;7.97;3.22;;;;;;;;;;4955289;29;20386;-56
2022/07/06 03:59:02;;;;;;;11.10;3.42;;;;;;;;;;4955061;29;20442;-57
2022/07/06 04:01:30;;;;;;;7.82;3.13;;;;;;;;;;4955089;29;20062;-57
2022/07/06 04:03:57;;;;;;;9.20;3.13;;;;;;;;;;4955210;29;20065;-57
2022/07/06 04:06:24;;;;;;;6.70;3.05;;;;;;;;;;4955551;29;20023;-58
2022/07/06 04:08:51;;;;;;;8.73;3.65;;;;;;;;;;4954486;29;20031;-58
2022/07/06 04:11:18;;;;;;;9.80;3.70;;;;;;;;;;4955534;29;20047;-56
2022/07/06 04:13:45;;;;;;;5.18;2.72;;;;;;;;;;4954999;29;20031;-57
2022/07/06 04:16:12;;;;;;;10.30;3.10;;;;;;;;;;4955003;29;20050;-57
2022/07/06 04:18:39;;;;;;;8.23;3.17;;;;;;;;;;4955213;29;20035;-57
2022/07/06 04:21:06;;;;;;;7.38;2.97;;;;;;;;;;4954318;29;20448;-57
2022/07/06 04:23:33;;;;;;;5.32;2.65;;;;;;;;;;4955316;29;20027;-56
2022/07/06 04:26:00;;;;;;;7.03;2.72;;;;;;;;;;4954646;29;20027;-56
2022/07/06 04:28:27;;;;;;;9.10;3.38;;;;;;;;;;4954988;29;20039;-56
2022/07/06 04:30:54;;;;;;;6.43;2.78;;;;;;;;;;4937121;29;20553;-58
2022/07/06 04:33:21;;;;;;;6.85;2.75;;;;;;;;;;4954990;29;20035;-57
2022/07/06 04:35:48;;;;;;;7.72;3.17;;;;;;;;;;4954994;29;20031;-55
2022/07/06 04:38:15;;;;;;;6.60;2.45;;;;;;;;;;4953632;28;20031;-57
2022/07/06 04:40:42;;;;;;;5.97;2.67;;;;;;;;;;4954167;29;20047;-57
2022/07/06 04:43:09;;;;;;;6.45;2.53;;;;;;;;;;4954620;29;20019;-57
2022/07/06 04:45:36;;;;;;;8.00;2.80;;;;;;;;;;4954249;29;20393;-57
2022/07/06 04:48:03;;;;;;;5.63;2.58;;;;;;;;;;4954516;29;20033;-57
2022/07/06 04:50:32;;;;;;;5.65;2.58;;;;;;;;;;4936987;29;20371;-57
2022/07/06 04:52:59;;;;;;;6.32;2.60;;;;;;;;;;4954543;29;20031;-56
2022/07/06 04:55:26;;;;;;;8.25;2.88;;;;;;;;;;4953765;29;20094;-57
2022/07/06 04:57:53;;;;;;;5.70;2.47;;;;;;;;;;4954344;29;20057;-56
2022/07/06 05:00:20;;;;;;;6.68;2.55;;;;;;;;;;4953850;29;20385;-57
2022/07/06 05:02:47;;;;;;;5.25;2.58;;;;;;;;;;4954109;29;20031;-56
2022/07/06 05:05:14;;;;;;;5.72;2.80;;;;;;;;;;4953861;29;20038;-58
2022/07/06 05:07:41;;;;;;;5.22;2.70;;;;;;;;;;4953578;29;20031;-56
2022/07/06 05:10:11;;;;;;;5.47;2.42;;;;;;;;;;4954196;29;20027;-57
2022/07/06 05:12:38;;;;;;;6.78;2.60;;;;;;;;;;4953431;29;20121;-58
2022/07/06 05:15:06;;;;;;;5.60;2.58;;;;;;;;;;4954439;29;20393;-58
2022/07/06 05:17:33;;;;;;;5.82;2.40;;;;;;;;;;4953405;29;20030;-56
2022/07/06 05:20:00;;;;;;;4.93;2.55;;;;;;;;;;4953947;29;20155;-54
2022/07/06 05:22:27;;;;;;;4.40;1.90;;;;;;;;;;4953516;29;20378;-57
2022/07/06 05:24:54;;;;;;;5.63;2.75;;;;;;;;;;4954138;29;20417;-58
2022/07/06 05:27:21;;;;;;;4.63;2.22;;;;;;;;;;4953594;29;20027;-57
2022/07/06 05:29:48;;;;;;;4.93;2.28;;;;;;;;;;4953638;29;20162;-56
2022/07/06 05:32:15;;;;;;;4.47;2.55;;;;;;;;;;4953841;29;20027;-56
2022/07/06 05:34:42;;;;;;;4.22;2.03;;;;;;;;;;4954118;29;20034;-56
2022/07/06 05:37:10;;;;;;;5.45;2.30;;;;;;;;;;4954188;29;20109;-57
2022/07/06 05:39:38;;;;;;;5.93;1.90;;;;;;;;;;4952672;29;20054;-57
2022/07/06 05:42:05;;;;;;;3.63;1.85;;;;;;;;;;4953252;29;20042;-57
2022/07/06 05:44:32;;;;;;;3.80;2.00;;;;;;;;;;4953503;29;20065;-57
2022/07/06 05:50:11;;;;;;;4.70;2.17;;;;;;;;;;4953940;29;20027;-56
2022/07/06 05:52:31;;;;;;;6.60;2.20;;;;;;;;;;4953966;29;20146;-56
2022/07/06 05:54:58;;;;;;;3.70;1.70;;;;;;;;;;4953457;29;20035;-57
2022/07/06 05:57:26;;;;;;;3.97;2.10;;;;;;;;;;4952934;29;20027;-57
2022/07/06 05:59:53;;;;;;;5.03;2.00;;;;;;;;;;4953672;29;20043;-56
2022/07/06 06:02:20;;;;;;;4.65;2.30;;;;;;;;;;4952745;29;20028;-57
2022/07/06 06:04:47;;;;;;;2.75;1.88;;;;;;;;;;4953759;29;20027;-57
2022/07/06 06:07:14;;;;;;;4.38;2.10;;;;;;;;;;4953105;29;20059;-56
2022/07/06 06:09:41;;;;;;;3.47;1.95;;;;;;;;;;4953464;29;20457;-56
2022/07/06 06:12:08;;;;;;;3.53;2.40;;;;;;;;;;4936650;29;20090;-56
2022/07/06 06:14:35;;;;;;;4.15;2.00;;;;;;;;;;4952715;29;20431;-57
2022/07/06 06:17:01;;;;;;;3.83;1.75;;;;;;;;;;4953601;29;20492;-57
2022/07/06 06:19:28;;;;;;;4.43;1.83;;;;;;;;;;4953061;29;20035;-55
2022/07/06 06:21:55;;;;;;;2.67;1.58;;;;;;;;;;4953283;29;20032;-57
2022/07/06 06:24:23;;;;;;;2.97;1.88;;;;;;;;;;4952724;29;20024;-57
2022/07/06 06:26:50;;;;;;;3.85;2.05;;;;;;;;;;4953352;29;20062;-57
2022/07/06 06:29:17;;;;;;;3.65;1.80;;;;;;;;;;4935231;29;20460;-54
2022/07/06 06:31:44;;;;;;;3.03;1.92;;;;;;;;;;4953375;29;20027;-56
2022/07/06 06:34:12;;;;;;;3.45;1.90;;;;;;;;;;4953185;29;20027;-57
2022/07/06 06:36:39;;;;;;;4.25;2.05;;;;;;;;;;4952534;29;20404;-57
2022/07/06 06:39:05;;;;;;;2.72;1.60;;;;;;;;;;4953033;29;20073;-57
2022/07/06 06:41:32;;;;;;;2.65;1.52;;;;;;;;;;4952273;29;20070;-57
2022/07/06 06:43:59;;;;;;;3.60;1.60;;;;;;;;;;4953261;29;20027;-57
2022/07/06 06:46:26;;;;;;;3.42;1.95;;;;;;;;;;4953004;29;20035;-57
2022/07/06 06:48:53;;;;;;;3.13;1.55;;;;;;;;;;4952253;29;20035;-57
2022/07/06 06:51:20;;;;;;;2.35;1.58;;;;;;;;;;4952468;29;20030;-57
2022/07/06 06:53:48;;;;;;;2.58;1.50;;;;;;;;;;4952810;29;20035;-57
2022/07/06 06:56:15;;;;;;;3.22;1.80;;;;;;;;;;4953119;29;20039;-57
2022/07/06 06:58:42;;;;;;;2.60;1.52;;;;;;;;;;4952324;29;20063;-56
2022/07/06 07:01:09;;;;;;;1.90;1.40;;;;;;;;;;4953147;28;20509;-55
2022/07/06 07:03:36;;;;;;;4.30;1.90;;;;;;;;;;4956029;29;20107;-56
2022/07/06 07:06:03;;;;;;;3.15;1.80;;;;;;;;;;4956597;29;20038;-55
2022/07/06 07:08:30;;;;;;;1.88;1.50;;;;;;;;;;4956608;29;20031;-57
2022/07/06 07:10:57;;;;;;;4.00;1.75;;;;;;;;;;4955831;29;20031;-57
2022/07/06 07:13:24;;;;;;;2.60;1.67;;;;;;;;;;4956199;29;20110;-57
2022/07/06 07:15:51;;;;;;;4.13;1.50;;;;;;;;;;4956316;29;20024;-55
2022/07/06 07:18:18;;;;;;;3.13;1.70;;;;;;;;;;4955747;29;20032;-55
2022/07/06 07:20:45;;;;;;;2.33;1.65;;;;;;;;;;4955754;29;20023;-57
2022/07/06 07:23:12;;;;;;;3.83;1.70;;;;;;;;;;4956452;29;20034;-56
2022/07/06 07:25:39;;;;;;;2.95;1.83;;;;;;;;;;4956358;29;20035;-56
2022/07/06 07:28:06;;;;;;;2.00;1.40;;;;;;;;;;4955598;29;20050;-56
2022/07/06 07:30:33;;;;;;;3.13;1.60;;;;;;;;;;4955485;29;20034;-58
2022/07/06 07:33:00;;;;;;;2.63;1.83;;;;;;;;;;4956260;29;20023;-57
2022/07/06 07:35:27;;;;;;;3.85;1.48;;;;;;;;;;4955442;29;20027;-57
2022/07/06 07:37:54;;;;;;;2.90;1.90;;;;;;;;;;4955426;29;20103;-57
2022/07/06 07:40:22;;;;;;;2.35;1.70;;;;;;;;;;4955388;29;20051;-55
2022/07/06 07:42:49;;;;;;;2.22;1.60;;;;;;;;;;4955708;29;20070;-58
2022/07/06 07:45:16;;;;;;;3.15;1.70;;;;;;;;;;4938095;29;20090;-57
2022/07/06 07:50:52;;;;;;;3.13;2.03;;;;;;;;;;4936464;29;20565;-60
2022/07/06 07:53:19;;;;;;;2.38;1.90;;;;;;;;;;4936898;29;20027;-60
2022/07/06 07:55:46;;;;;;;3.65;1.70;;;;;;;;;;4936399;29;20457;-60
2022/07/06 07:58:13;;;;;;;2.67;1.85;;;;;;;;;;4936178;29;20043;-60
2022/07/06 08:00:40;;;;;;;3.00;1.98;;;;;;;;;;4936971;29;20454;-60
2022/07/06 08:03:07;;;;;;;3.20;1.75;;;;;;;;;;4936399;29;20034;-60
2022/07/06 08:05:34;;;;;;;2.33;1.80;;;;;;;;;;4936233;29;20405;-59
2022/07/06 08:08:01;;;;;;;2.15;1.65;;;;;;;;;;4936759;29;20598;-60
2022/07/06 08:10:28;;;;;;;2.30;1.77;;;;;;;;;;4936280;29;20035;-60
2022/07/06 08:12:55;;;;;;;3.08;2.13;;;;;;;;;;4935910;29;20028;-60
2022/07/06 08:15:22;;;;;;;2.70;1.90;;;;;;;;;;4936194;29;20031;-60
2022/07/06 08:17:49;;;;;;;2.78;1.65;;;;;;;;;;4935830;29;20082;-60
2022/07/06 08:20:16;;;;;;;2.20;1.55;;;;;;;;;;4936473;29;20114;-60
2022/07/06 08:22:43;;;;;;;2.65;1.90;;;;;;;;;;4936037;29;20032;-60
2022/07/06 08:25:10;;;;;;;3.28;2.03;;;;;;;;;;4936369;29;20032;-60
2022/07/06 08:27:37;;;;;;;2.78;1.90;;;;;;;;;;4936054;29;20032;-60
2022/07/06 08:30:05;;;;;;;5.60;1.95;;;;;;;;;;4935522;29;20110;-60
2022/07/06 08:32:32;;;;;;;2.92;1.95;;;;;;;;;;4935832;29;20027;-60
2022/07/06 08:34:59;;;;;;;2.47;1.85;;;;;;;;;;4936216;29;20036;-60
2022/07/06 08:37:26;;;;;;;2.17;1.70;;;;;;;;;;4935935;29;20032;-60
2022/07/06 08:39:53;;;;;;;3.08;2.00;;;;;;;;;;4935366;29;20040;-60
2022/07/06 08:42:20;;;;;;;3.30;1.95;;;;;;;;;;4935233;29;20034;-60
2022/07/06 08:44:47;;;;;;;2.72;1.67;;;;;;;;;;4935650;29;20031;-60
2022/07/06 08:47:15;;;;;;;2.95;2.03;;;;;;;;;;4935115;29;20043;-60
2022/07/06 08:49:43;;;;;;;2.50;1.67;;;;;;;;;;4935960;29;20114;-60
2022/07/06 08:52:11;;;;;;;3.33;2.05;;;;;;;;;;4934899;29;20028;-60
2022/07/06 08:54:39;;;;;;;2.72;1.95;;;;;;;;;;4935795;29;20051;-60
2022/07/06 08:57:06;;;;;;;2.90;1.88;;;;;;;;;;4935189;29;20038;-60
2022/07/06 08:59:33;;;;;;;3.72;2.10;;;;;;;;;;4935529;29;20040;-60
2022/07/06 09:02:01;;;;;;;2.88;1.92;;;;;;;;;;4934938;29;20019;-60
2022/07/06 09:04:28;;;;;;;3.53;2.28;;;;;;;;;;4935320;29;20524;-60
2022/07/06 09:06:55;;;;;;;2.05;1.80;;;;;;;;;;4934894;29;20024;-60
2022/07/06 09:09:24;;;;;;;3.17;2.00;;;;;;;;;;4935275;29;20040;-60
2022/07/06 09:11:52;;;;;;;3.63;1.80;;;;;;;;;;4934868;29;20083;-60
2022/07/06 09:14:19;;;;;;;2.13;1.85;;;;;;;;;;4935476;29;20031;-60
2022/07/06 09:16:47;;;;;;;2.75;1.92;;;;;;;;;;4934763;29;20031;-60
2022/07/06 09:19:15;;;;;;;2.30;1.92;;;;;;;;;;4934603;29;20115;-60
2022/07/06 09:21:42;;;;;;;4.03;1.77;;;;;;;;;;4935036;29;20106;-60
2022/07/06 09:24:10;;;;;;;2.22;1.80;;;;;;;;;;4934001;29;20482;-60
2022/07/06 09:26:38;;;;;;;2.65;1.80;;;;;;;;;;4934979;29;20110;-60
2022/07/06 09:29:06;;;;;;;2.65;1.80;;;;;;;;;;4934837;29;20031;-60
2022/07/06 09:31:33;;;;;;;3.22;2.00;;;;;;;;;;4934869;29;20044;-60
2022/07/06 09:34:09;;;;;;;2.90;2.30;;;;;;;;;;4934639;29;20401;-60
2022/07/06 09:36:40;;;;;;;2.40;2.20;;;;;;;;;;4934553;29;20039;-60
2022/07/06 09:39:17;;;;;;;2.42;1.98;;;;;;;;;;4934882;29;20122;-60
2022/07/06 09:41:45;;;;;;;2.67;2.28;;;;;;;;;;4936431;29;20065;-60
2022/07/06 09:44:12;;;;;;;2.75;2.08;;;;;;;;;;4937500;29;20532;-60
2022/07/06 09:46:41;;;;;;;3.97;2.25;;;;;;;;;;4931697;29;20031;-62
2022/07/06 09:49:08;;;;;;;3.30;2.00;;;;;;;;;;4934765;29;20035;-60
2022/07/06 09:51:39;;;;;;;2.55;2.10;;;;;;;;;;4934528;29;20046;-60
2022/07/06 09:54:09;;;;;;;2.72;2.08;;;;;;;;;;4934790;29;20497;-60
2022/07/06 09:56:44;;;;;;;3.38;2.60;;;;;;;;;;4945611;29;20062;-60
2022/07/06 09:59:11;;;;;;;6.18;2.75;;;;;;;;;;4966188;28;20501;-62
2022/07/06 10:01:39;;;;;;;6.03;3.15;;;;;;;;;;4972720;28;20035;-62
2022/07/06 10:04:12;;;;;;;4.00;2.70;;;;;;;;;;4972882;28;20042;-62
2022/07/06 10:06:40;;;;;;;7.20;2.83;;;;;;;;;;4972754;28;20133;-62
2022/07/06 10:09:07;;;;;;;7.90;3.28;;;;;;;;;;4972807;28;20027;-61
2022/07/06 10:11:42;;;;;;;4.65;3.33;;;;;;;;;;4973232;28;20027;-61
2022/07/06 10:14:09;;;;;;;7.78;3.20;;;;;;;;;;4972651;28;20121;-60
2022/07/06 10:16:37;;;;;;;4.78;2.90;;;;;;;;;;4973062;28;20539;-62
2022/07/06 10:19:08;;;;;;;5.45;2.88;;;;;;;;;;4972810;28;20031;-61
2022/07/06 10:21:36;;;;;;;7.22;3.05;;;;;;;;;;4973339;28;20031;-61
2022/07/06 10:24:04;;;;;;;6.22;2.90;;;;;;;;;;4972588;28;20089;-60
2022/07/06 10:26:33;;;;;;;5.68;2.90;;;;;;;;;;4973197;28;20117;-61
2022/07/06 10:29:00;;;;;;;5.72;3.50;;;;;;;;;;4973365;28;20424;-61
2022/07/06 10:31:31;;;;;;;8.25;3.08;;;;;;;;;;4972761;28;20477;-62
2022/07/06 10:34:05;;;;;;;3.78;2.95;;;;;;;;;;4972943;28;20030;-62
2022/07/06 10:36:37;;;;;;;4.13;2.88;;;;;;;;;;4973595;28;20518;-62
2022/07/06 10:41:02;;;;;;;6.03;3.03;;;;;;;;;;4976145;28;20068;-61
2022/07/06 10:41:51;;;;;;;4.43;2.83;;;;;;;;;;4976944;28;20061;-62
2022/07/06 10:44:18;;;;;;;5.45;3.08;;;;;;;;;;4976273;28;20038;-61
2022/07/06 10:46:53;;;;;;;6.32;2.85;;;;;;;;;;4976543;28;20662;-61
2022/07/06 10:49:20;;;;;;;4.95;2.92;;;;;;;;;;4976191;28;20138;-61
2022/07/06 10:51:50;;;;;;;5.47;3.10;;;;;;;;;;4976095;28;20109;-62
2022/07/06 10:54:18;;;;;;;4.13;2.80;;;;;;;;;;4976867;28;20095;-61
2022/07/06 10:56:50;;;;;;;5.00;3.08;;;;;;;;;;4976296;28;20034;-62
2022/07/06 10:59:18;;;;;;;7.50;3.45;;;;;;;;;;4976313;28;20143;-62
2022/07/06 11:02:03;;;;;;;4.35;3.13;;;;;;;;;;4975813;28;20053;-62
2022/07/06 11:04:37;;;;;;;5.25;3.05;;;;;;;;;;4976537;28;20508;-62
2022/07/06 11:07:11;;;;;;;4.65;3.20;;;;;;;;;;4975584;28;20050;-61
2022/07/06 11:09:42;;;;;;;2.95;2.40;;;;;;;;;;4976531;28;20042;-62
2022/07/06 11:12:19;;;;;;;5.18;3.03;;;;;;;;;;4976373;28;20039;-62
2022/07/06 11:14:47;;;;;;;7.00;3.13;;;;;;;;;;4975647;28;20042;-62
2022/07/06 11:17:14;;;;;;;5.75;3.20;;;;;;;;;;4976408;28;20503;-62
2022/07/06 11:19:51;;;;;;;5.13;3.05;;;;;;;;;;4958159;28;20441;-62
2022/07/06 11:22:19;;;;;;;4.43;3.08;;;;;;;;;;4976287;28;20095;-61
2022/07/06 11:24:47;;;;;;;5.25;2.78;;;;;;;;;;4975743;28;20062;-62
2022/07/06 11:27:14;;;;;;;3.85;2.65;;;;;;;;;;4975737;28;20051;-60
2022/07/06 11:29:41;;;;;;;5.00;2.55;;;;;;;;;;4975219;28;20126;-62
2022/07/06 11:32:10;;;;;;;5.05;2.85;;;;;;;;;;4975793;28;20038;-62
2022/07/06 11:34:42;;;;;;;4.50;3.10;;;;;;;;;;4975759;28;20090;-61
2022/07/06 11:37:12;;;;;;;6.70;2.65;;;;;;;;;;4975743;28;20473;-62
2022/07/06 11:39:40;;;;;;;4.40;2.80;;;;;;;;;;4975100;28;20031;-62
2022/07/06 11:42:08;;;;;;;4.55;2.42;;;;;;;;;;4975530;28;20117;-62
2022/07/06 11:44:36;;;;;;;5.28;3.13;;;;;;;;;;4975660;28;20098;-62
2022/07/06 11:47:03;;;;;;;5.47;2.90;;;;;;;;;;4958066;28;20051;-62
2022/07/06 11:49:31;;;;;;;3.78;2.90;;;;;;;;;;4974469;28;20504;-62
2022/07/06 11:51:58;;;;;;;2.83;2.42;;;;;;;;;;4975760;28;20089;-62
2022/07/06 11:54:26;;;;;;;4.70;2.88;;;;;;;;;;4975419;28;20462;-62
2022/07/06 11:57:03;;;;;;;5.00;2.50;;;;;;;;;;4975298;28;20031;-62
2022/07/06 11:59:31;;;;;;;3.20;2.40;;;;;;;;;;4975315;28;20078;-62
2022/07/06 12:01:59;;;;;;;3.25;2.58;;;;;;;;;;4974966;28;20117;-62
2022/07/06 12:04:26;;;;;;;3.25;2.40;;;;;;;;;;4975636;28;20019;-61
2022/07/06 12:06:53;;;;;;;4.50;2.30;;;;;;;;;;4974820;28;20121;-62
2022/07/06 12:09:20;;;;;;;3.50;2.60;;;;;;;;;;4975195;28;20035;-62
2022/07/06 12:11:47;;;;;;;3.38;2.60;;;;;;;;;;4957542;28;20033;-61
2022/07/06 12:14:14;;;;;;;3.03;2.47;;;;;;;;;;4975045;28;20064;-61
2022/07/06 12:16:41;;;;;;;3.85;2.53;;;;;;;;;;4974861;28;20035;-63
2022/07/06 12:19:11;;;;;;;4.38;2.53;;;;;;;;;;4974745;28;20035;-62
2022/07/06 12:21:44;;;;;;;3.63;2.58;;;;;;;;;;4974739;28;20031;-62
2022/07/06 12:24:11;;;;;;;2.75;2.08;;;;;;;;;;4974813;28;20034;-62
2022/07/06 12:26:41;;;;;;;3.38;2.50;;;;;;;;;;4974571;28;20022;-62
2022/07/06 12:29:16;;;;;;;4.45;2.60;;;;;;;;;;4974526;28;20035;-62
2022/07/06 12:31:45;;;;;;;2.83;2.38;;;;;;;;;;4974552;28;20066;-62
2022/07/06 12:34:18;;;;;;;3.63;2.35;;;;;;;;;;4974866;28;20609;-62
2022/07/06 12:36:51;;;;;;;2.65;2.10;;;;;;;;;;4974306;28;20405;-62
2022/07/06 12:39:19;;;;;;;6.47;2.42;;;;;;;;;;4974234;28;20043;-62
2022/07/06 12:41:48;;;;;;;6.20;2.40;;;;;;;;;;4974838;28;20050;-62
2022/07/06 12:44:16;;;;;;;2.63;2.25;;;;;;;;;;4973937;28;20061;-62
2022/07/06 12:46:44;;;;;;;3.15;2.35;;;;;;;;;;4973705;28;20101;-62
2022/07/06 12:49:24;;;;;;;2.50;2.10;;;;;;;;;;4974758;28;20023;-61
2022/07/06 12:52:01;;;;;;;3.72;2.25;;;;;;;;;;4973610;28;20524;-62
2022/07/06 12:54:42;;;;;;;2.53;2.15;;;;;;;;;;4974657;28;20034;-62
2022/07/06 12:57:16;;;;;;;3.85;2.22;;;;;;;;;;4974047;28;20030;-62
2022/07/06 12:59:45;;;;;;;5.13;2.58;;;;;;;;;;4972742;28;20046;-62
2022/07/06 13:02:23;;;;;;;2.55;2.10;;;;;;;;;;4974462;28;20050;-63
2022/07/06 13:05:03;;;;;;;3.83;2.30;;;;;;;;;;4957033;28;20118;-59
2022/07/06 13:07:37;;;;;;;3.67;2.20;;;;;;;;;;4954401;29;20528;-59
2022/07/06 13:10:05;;;;;;;3.38;1.95;;;;;;;;;;4954076;29;20027;-62
2022/07/06 13:12:32;;;;;;;2.83;2.28;;;;;;;;;;4954487;29;20544;-62
2022/07/06 13:14:59;;;;;;;3.78;2.50;;;;;;;;;;4953557;28;20114;-58
2022/07/06 13:17:26;;;;;;;2.63;2.17;;;;;;;;;;4959370;28;20023;-59
2022/07/06 13:19:53;;;;;;;3.80;2.70;;;;;;;;;;4967566;28;20158;-58
2022/07/06 13:22:20;;;;;;;3.65;2.03;;;;;;;;;;4973188;28;20704;-58
2022/07/06 13:24:47;;;;;;;4.93;2.30;;;;;;;;;;4974035;28;20027;-58
2022/07/06 13:27:14;;;;;;;5.20;2.30;;;;;;;;;;4958368;28;20114;-61
2022/07/06 13:29:41;;;;;;;4.78;2.65;;;;;;;;;;4947123;28;20389;-60
2022/07/06 13:32:08;;;;;;;4.50;2.30;;;;;;;;;;4948989;28;20445;-57
2022/07/06 13:34:35;;;;;;;4.75;2.15;;;;;;;;;;4948352;28;20035;-57
2022/07/06 13:37:03;;;;;;;5.80;2.30;;;;;;;;;;4952265;29;20031;-60
2022/07/06 13:39:30;;;;;;;6.35;2.20;;;;;;;;;;4952407;29;20524;-59
2022/07/06 13:41:57;;;;;;;6.82;2.30;;;;;;;;;;4950751;28;20575;-60
2022/07/06 13:44:24;;;;;;;4.13;2.53;;;;;;;;;;4952031;28;20039;-60
2022/07/06 13:46:52;;;;;;;6.85;2.63;;;;;;;;;;4950582;28;20019;-56
2022/07/06 13:49:19;;;;;;;5.70;2.47;;;;;;;;;;4952530;29;20030;-61
2022/07/06 13:51:46;;;;;;;9.48;2.70;;;;;;;;;;4951471;28;20041;-60
2022/07/06 13:54:13;;;;;;;8.18;2.67;;;;;;;;;;4952648;28;20473;-59
2022/07/06 13:56:40;;;;;;;10.07;2.70;;;;;;;;;;4951777;28;20033;-60
2022/07/06 13:59:07;;;;;;;7.50;2.70;;;;;;;;;;4950960;28;20525;-59
2022/07/06 14:01:34;;;;;;;12.48;3.03;;;;;;;;;;4952282;29;20489;-60
2022/07/06 14:04:01;;;;;;;10.85;2.58;;;;;;;;;;4952363;29;20481;-59
2022/07/06 14:06:29;;;;;;;5.93;2.67;;;;;;;;;;4945897;29;20485;-60
2022/07/06 14:08:56;;;;;;;5.35;2.78;;;;;;;;;;4950569;29;20102;-61
2022/07/06 14:11:22;;;;;;;11.55;3.05;;;;;;;;;;4933589;29;20048;-58
2022/07/06 14:13:49;;;;;;;6.30;2.78;;;;;;;;;;4952007;28;20097;-59
2022/07/06 14:16:16;;;;;;;11.23;2.75;;;;;;;;;;4950199;28;20027;-58
2022/07/06 14:18:43;;;;;;;6.38;3.17;;;;;;;;;;4955432;28;20061;-59
2022/07/06 14:21:10;;;;;;;8.10;2.95;;;;;;;;;;4954678;28;20058;-60
2022/07/06 14:23:38;;;;;;;6.53;2.92;;;;;;;;;;4955117;28;20023;-59
2022/07/06 14:26:06;;;;;;;7.07;3.17;;;;;;;;;;4954659;28;20039;-62
2022/07/06 14:28:33;;;;;;;6.82;3.22;;;;;;;;;;4954946;28;20043;-58
2022/07/06 14:31:02;;;;;;;7.32;3.33;;;;;;;;;;4940157;28;20448;-61
2022/07/06 14:33:29;;;;;;;10.63;3.47;;;;;;;;;;4955512;28;20047;-57
2022/07/06 14:35:56;;;;;;;8.55;3.85;;;;;;;;;;4954889;28;20039;-59
2022/07/06 14:38:23;;;;;;;10.32;3.53;;;;;;;;;;4955469;28;20098;-58
2022/07/06 14:40:50;;;;;;;11.35;5.03;;;;;;;;;;4956315;28;20517;-52
2022/07/06 14:43:17;;;;;;;14.82;4.75;;;;;;;;;;4955370;28;20027;-58
2022/07/06 14:45:45;;;;;;;15.65;4.72;;;;;;;;;;4954230;28;20710;-57
2022/07/06 14:48:13;;;;;;;14.15;4.90;;;;;;;;;;4954761;28;20086;-55